sensor_id;sensor_type;location;lat;lon;timestamp;P1;durP1;ratioP1;P2;durP2;ratioP2
30062;SDS011;16889;67.864;24.990;2023-01-13T00:03:15;1.58;;;0.80;;
30062;SDS011;16889;67.864;24.990;2023-01-13T00:08:01;1.98;;;0.90;;
30062;SDS011;16889;67.864;24.990;2023-01-13T00:12:49;0.88;;;0.70;;
30062;SDS011;16889;67.864;24.990;2023-01-13T00:17:37;2.28;;;0.68;;
30062;SDS011;16889;67.864;24.990;2023-01-13T00:22:24;3.47;;;0.70;;
30062;SDS011;16889;67.864;24.990;2023-01-13T00:27:09;1.15;;;0.60;;
30062;SDS011;16889;67.864;24.990;2023-01-13T00:31:55;2.85;;;0.70;;
30062;SDS011;16889;67.864;24.990;2023-01-13T00:36:42;1.98;;;0.60;;
30062;SDS011;16889;67.864;24.990;2023-01-13T00:41:29;1.85;;;0.50;;
30062;SDS011;16889;67.864;24.990;2023-01-13T00:46:35;1.02;;;0.57;;
30062;SDS011;16889;67.864;24.990;2023-01-13T00:51:21;1.05;;;0.70;;
30062;SDS011;16889;67.864;24.990;2023-01-13T00:56:08;2.25;;;0.60;;
30062;SDS011;16889;67.864;24.990;2023-01-13T01:01:06;1.33;;;0.70;;
30062;SDS011;16889;67.864;24.990;2023-01-13T01:05:54;0.90;;;0.50;;
30062;SDS011;16889;67.864;24.990;2023-01-13T01:10:41;1.77;;;0.60;;
30062;SDS011;16889;67.864;24.990;2023-01-13T01:15:27;0.57;;;0.57;;
30062;SDS011;16889;67.864;24.990;2023-01-13T01:20:13;1.05;;;0.68;;
30062;SDS011;16889;67.864;24.990;2023-01-13T01:24:59;1.30;;;0.60;;
30062;SDS011;16889;67.864;24.990;2023-01-13T01:29:45;1.48;;;0.70;;
30062;SDS011;16889;67.864;24.990;2023-01-13T01:34:31;1.60;;;0.73;;
30062;SDS011;16889;67.864;24.990;2023-01-13T01:39:17;3.22;;;0.70;;
30062;SDS011;16889;67.864;24.990;2023-01-13T01:54:06;2.13;;;0.80;;
30062;SDS011;16889;67.864;24.990;2023-01-13T01:58:55;1.27;;;0.60;;
30062;SDS011;16889;67.864;24.990;2023-01-13T02:03:42;1.08;;;0.68;;
30062;SDS011;16889;67.864;24.990;2023-01-13T02:08:36;2.45;;;0.70;;
30062;SDS011;16889;67.864;24.990;2023-01-13T02:13:24;0.70;;;0.63;;
30062;SDS011;16889;67.864;24.990;2023-01-13T02:18:15;1.60;;;0.65;;
30062;SDS011;16889;67.864;24.990;2023-01-13T02:23:26;0.90;;;0.70;;
30062;SDS011;16889;67.864;24.990;2023-01-13T02:39:37;1.52;;;0.75;;
30062;SDS011;16889;67.864;24.990;2023-01-13T02:44:47;1.25;;;0.77;;
30062;SDS011;16889;67.864;24.990;2023-01-13T02:49:42;0.63;;;0.63;;
30062;SDS011;16889;67.864;24.990;2023-01-13T02:54:43;0.85;;;0.80;;
30062;SDS011;16889;67.864;24.990;2023-01-13T02:59:32;1.10;;;0.85;;
30062;SDS011;16889;67.864;24.990;2023-01-13T03:09:43;0.80;;;0.80;;
30062;SDS011;16889;67.864;24.990;2023-01-13T03:14:45;2.40;;;0.73;;
30062;SDS011;16889;67.864;24.990;2023-01-13T03:19:56;1.00;;;0.90;;
30062;SDS011;16889;67.864;24.990;2023-01-13T03:24:46;1.67;;;0.90;;
30062;SDS011;16889;67.864;24.990;2023-01-13T03:29:49;1.77;;;0.90;;
30062;SDS011;16889;67.864;24.990;2023-01-13T03:34:48;1.30;;;0.80;;
30062;SDS011;16889;67.864;24.990;2023-01-13T03:39:38;0.88;;;0.70;;
30062;SDS011;16889;67.864;24.990;2023-01-13T03:44:34;1.35;;;0.90;;
30062;SDS011;16889;67.864;24.990;2023-01-13T03:49:33;0.80;;;0.70;;
30062;SDS011;16889;67.864;24.990;2023-01-13T03:54:49;0.90;;;0.50;;
30062;SDS011;16889;67.864;24.990;2023-01-13T03:59:41;1.05;;;0.80;;
30062;SDS011;16889;67.864;24.990;2023-01-13T04:09:45;1.08;;;0.90;;
30062;SDS011;16889;67.864;24.990;2023-01-13T04:14:37;0.73;;;0.57;;
30062;SDS011;16889;67.864;24.990;2023-01-13T04:19:24;0.90;;;0.73;;
30062;SDS011;16889;67.864;24.990;2023-01-13T04:24:10;0.90;;;0.63;;
30062;SDS011;16889;67.864;24.990;2023-01-13T04:28:56;0.80;;;0.57;;
30062;SDS011;16889;67.864;24.990;2023-01-13T04:33:44;1.77;;;0.50;;
30062;SDS011;16889;67.864;24.990;2023-01-13T04:38:30;1.42;;;0.60;;
30062;SDS011;16889;67.864;24.990;2023-01-13T04:43:16;0.75;;;0.60;;
30062;SDS011;16889;67.864;24.990;2023-01-13T04:48:04;1.77;;;0.80;;
30062;SDS011;16889;67.864;24.990;2023-01-13T04:52:51;1.13;;;0.60;;
30062;SDS011;16889;67.864;24.990;2023-01-13T04:57:38;0.70;;;0.47;;
30062;SDS011;16889;67.864;24.990;2023-01-13T05:02:24;1.95;;;0.60;;
30062;SDS011;16889;67.864;24.990;2023-01-13T05:07:10;1.58;;;0.70;;
30062;SDS011;16889;67.864;24.990;2023-01-13T05:11:56;0.70;;;0.60;;
30062;SDS011;16889;67.864;24.990;2023-01-13T05:17:00;0.50;;;0.50;;
30062;SDS011;16889;67.864;24.990;2023-01-13T05:21:49;0.50;;;0.50;;
30062;SDS011;16889;67.864;24.990;2023-01-13T05:26:53;0.50;;;0.40;;
30062;SDS011;16889;67.864;24.990;2023-01-13T05:31:39;0.70;;;0.50;;
30062;SDS011;16889;67.864;24.990;2023-01-13T05:36:25;0.50;;;0.43;;
30062;SDS011;16889;67.864;24.990;2023-01-13T05:41:11;0.50;;;0.50;;
30062;SDS011;16889;67.864;24.990;2023-01-13T05:46:15;0.70;;;0.50;;
30062;SDS011;16889;67.864;24.990;2023-01-13T05:51:02;0.50;;;0.47;;
30062;SDS011;16889;67.864;24.990;2023-01-13T05:55:49;0.82;;;0.50;;
30062;SDS011;16889;67.864;24.990;2023-01-13T06:00:36;0.50;;;0.50;;
30062;SDS011;16889;67.864;24.990;2023-01-13T06:05:22;0.40;;;0.32;;
30062;SDS011;16889;67.864;24.990;2023-01-13T06:10:09;0.40;;;0.40;;
30062;SDS011;16889;67.864;24.990;2023-01-13T06:14:55;0.40;;;0.40;;
30062;SDS011;16889;67.864;24.990;2023-01-13T06:19:41;0.40;;;0.40;;
30062;SDS011;16889;67.864;24.990;2023-01-13T06:24:27;0.55;;;0.55;;
30062;SDS011;16889;67.864;24.990;2023-01-13T06:29:13;0.68;;;0.50;;
30062;SDS011;16889;67.864;24.990;2023-01-13T06:34:01;0.40;;;0.38;;
30062;SDS011;16889;67.864;24.990;2023-01-13T06:38:53;0.40;;;0.40;;
30062;SDS011;16889;67.864;24.990;2023-01-13T06:43:43;0.40;;;0.40;;
30062;SDS011;16889;67.864;24.990;2023-01-13T06:48:31;0.47;;;0.47;;
30062;SDS011;16889;67.864;24.990;2023-01-13T06:53:19;0.57;;;0.40;;
30062;SDS011;16889;67.864;24.990;2023-01-13T06:58:05;0.50;;;0.50;;
30062;SDS011;16889;67.864;24.990;2023-01-13T07:02:51;0.40;;;0.40;;
30062;SDS011;16889;67.864;24.990;2023-01-13T07:07:38;0.45;;;0.40;;
30062;SDS011;16889;67.864;24.990;2023-01-13T07:12:24;0.30;;;0.30;;
30062;SDS011;16889;67.864;24.990;2023-01-13T07:17:10;0.40;;;0.40;;
30062;SDS011;16889;67.864;24.990;2023-01-13T07:21:56;1.45;;;0.40;;
30062;SDS011;16889;67.864;24.990;2023-01-13T07:26:42;0.60;;;0.35;;
30062;SDS011;16889;67.864;24.990;2023-01-13T07:31:28;0.30;;;0.30;;
30062;SDS011;16889;67.864;24.990;2023-01-13T07:36:14;0.32;;;0.32;;
30062;SDS011;16889;67.864;24.990;2023-01-13T07:41:00;0.70;;;0.40;;
30062;SDS011;16889;67.864;24.990;2023-01-13T07:46:05;1.75;;;0.43;;
30062;SDS011;16889;67.864;24.990;2023-01-13T07:50:51;0.73;;;0.40;;
30062;SDS011;16889;67.864;24.990;2023-01-13T07:55:41;0.40;;;0.30;;
30062;SDS011;16889;67.864;24.990;2023-01-13T08:00:27;0.40;;;0.40;;
30062;SDS011;16889;67.864;24.990;2023-01-13T08:05:13;0.40;;;0.40;;
30062;SDS011;16889;67.864;24.990;2023-01-13T08:10:00;0.45;;;0.40;;
30062;SDS011;16889;67.864;24.990;2023-01-13T08:14:46;0.40;;;0.40;;
30062;SDS011;16889;67.864;24.990;2023-01-13T08:19:34;1.10;;;0.50;;
30062;SDS011;16889;67.864;24.990;2023-01-13T08:24:20;0.30;;;0.30;;
30062;SDS011;16889;67.864;24.990;2023-01-13T08:29:06;1.42;;;0.30;;
30062;SDS011;16889;67.864;24.990;2023-01-13T08:33:52;0.40;;;0.40;;
30062;SDS011;16889;67.864;24.990;2023-01-13T08:38:38;0.40;;;0.40;;
30062;SDS011;16889;67.864;24.990;2023-01-13T08:43:26;2.67;;;0.50;;
30062;SDS011;16889;67.864;24.990;2023-01-13T08:48:12;0.30;;;0.30;;
30062;SDS011;16889;67.864;24.990;2023-01-13T08:52:58;0.65;;;0.40;;
30062;SDS011;16889;67.864;24.990;2023-01-13T08:57:44;0.40;;;0.40;;
30062;SDS011;16889;67.864;24.990;2023-01-13T09:02:30;0.68;;;0.30;;
30062;SDS011;16889;67.864;24.990;2023-01-13T09:07:16;0.38;;;0.38;;
30062;SDS011;16889;67.864;24.990;2023-01-13T09:12:03;0.30;;;0.30;;
30062;SDS011;16889;67.864;24.990;2023-01-13T09:17:08;1.30;;;0.40;;
30062;SDS011;16889;67.864;24.990;2023-01-13T09:21:55;0.38;;;0.30;;
30062;SDS011;16889;67.864;24.990;2023-01-13T09:26:41;1.50;;;0.30;;
30062;SDS011;16889;67.864;24.990;2023-01-13T09:31:27;0.38;;;0.38;;
30062;SDS011;16889;67.864;24.990;2023-01-13T09:36:13;0.30;;;0.30;;
30062;SDS011;16889;67.864;24.990;2023-01-13T09:40:59;0.30;;;0.30;;
30062;SDS011;16889;67.864;24.990;2023-01-13T09:45:47;0.35;;;0.30;;
30062;SDS011;16889;67.864;24.990;2023-01-13T09:51:08;0.38;;;0.38;;
30062;SDS011;16889;67.864;24.990;2023-01-13T09:56:05;0.30;;;0.30;;
30062;SDS011;16889;67.864;24.990;2023-01-13T10:00:59;0.30;;;0.30;;
30062;SDS011;16889;67.864;24.990;2023-01-13T10:11:26;0.40;;;0.40;;
30062;SDS011;16889;67.864;24.990;2023-01-13T10:16:40;1.00;;;0.40;;
30062;SDS011;16889;67.864;24.990;2023-01-13T10:21:49;0.82;;;0.30;;
30062;SDS011;16889;67.864;24.990;2023-01-13T10:26:55;0.32;;;0.32;;
30062;SDS011;16889;67.864;24.990;2023-01-13T10:31:48;0.82;;;0.30;;
30062;SDS011;16889;67.864;24.990;2023-01-13T10:36:36;0.40;;;0.40;;
30062;SDS011;16889;67.864;24.990;2023-01-13T10:41:23;0.30;;;0.30;;
30062;SDS011;16889;67.864;24.990;2023-01-13T10:46:14;0.30;;;0.30;;
30062;SDS011;16889;67.864;24.990;2023-01-13T10:51:11;0.32;;;0.32;;
30062;SDS011;16889;67.864;24.990;2023-01-13T10:56:07;0.43;;;0.30;;
30062;SDS011;16889;67.864;24.990;2023-01-13T11:01:04;0.65;;;0.30;;
30062;SDS011;16889;67.864;24.990;2023-01-13T11:05:54;0.30;;;0.30;;
30062;SDS011;16889;67.864;24.990;2023-01-13T11:10:46;0.30;;;0.30;;
30062;SDS011;16889;67.864;24.990;2023-01-13T11:15:57;0.30;;;0.30;;
30062;SDS011;16889;67.864;24.990;2023-01-13T11:21:00;0.30;;;0.30;;
30062;SDS011;16889;67.864;24.990;2023-01-13T11:25:53;0.30;;;0.30;;
30062;SDS011;16889;67.864;24.990;2023-01-13T11:36:19;0.45;;;0.30;;
30062;SDS011;16889;67.864;24.990;2023-01-13T11:46:27;0.52;;;0.40;;
30062;SDS011;16889;67.864;24.990;2023-01-13T12:01:23;0.38;;;0.38;;
30062;SDS011;16889;67.864;24.990;2023-01-13T12:11:30;0.40;;;0.40;;
30062;SDS011;16889;67.864;24.990;2023-01-13T12:16:47;0.68;;;0.40;;
30062;SDS011;16889;67.864;24.990;2023-01-13T12:21:52;0.30;;;0.30;;
30062;SDS011;16889;67.864;24.990;2023-01-13T12:27:20;0.50;;;0.50;;
30062;SDS011;16889;67.864;24.990;2023-01-13T12:32:17;0.40;;;0.40;;
30062;SDS011;16889;67.864;24.990;2023-01-13T12:42:07;0.40;;;0.40;;
30062;SDS011;16889;67.864;24.990;2023-01-13T12:47:31;0.40;;;0.40;;
30062;SDS011;16889;67.864;24.990;2023-01-13T12:52:21;0.50;;;0.50;;
30062;SDS011;16889;67.864;24.990;2023-01-13T12:57:16;0.45;;;0.45;;
30062;SDS011;16889;67.864;24.990;2023-01-13T13:07:03;1.02;;;0.60;;
30062;SDS011;16889;67.864;24.990;2023-01-13T13:16:51;0.60;;;0.45;;
30062;SDS011;16889;67.864;24.990;2023-01-13T13:26:57;0.40;;;0.40;;
30062;SDS011;16889;67.864;24.990;2023-01-13T13:42:09;0.60;;;0.57;;
30062;SDS011;16889;67.864;24.990;2023-01-13T13:47:39;0.98;;;0.70;;
30062;SDS011;16889;67.864;24.990;2023-01-13T13:52:30;0.80;;;0.70;;
30062;SDS011;16889;67.864;24.990;2023-01-13T13:57:35;1.33;;;0.70;;
30062;SDS011;16889;67.864;24.990;2023-01-13T14:02:30;0.85;;;0.60;;
30062;SDS011;16889;67.864;24.990;2023-01-13T14:07:20;0.95;;;0.70;;
30062;SDS011;16889;67.864;24.990;2023-01-13T14:12:14;0.82;;;0.70;;
30062;SDS011;16889;67.864;24.990;2023-01-13T14:17:15;0.70;;;0.52;;
30062;SDS011;16889;67.864;24.990;2023-01-13T14:22:03;0.95;;;0.68;;
30062;SDS011;16889;67.864;24.990;2023-01-13T14:26:50;0.50;;;0.50;;
30062;SDS011;16889;67.864;24.990;2023-01-13T14:31:37;1.00;;;0.73;;
30062;SDS011;16889;67.864;24.990;2023-01-13T14:36:33;0.50;;;0.50;;
30062;SDS011;16889;67.864;24.990;2023-01-13T14:41:23;1.08;;;0.80;;
30062;SDS011;16889;67.864;24.990;2023-01-13T14:46:12;1.90;;;0.60;;
30062;SDS011;16889;67.864;24.990;2023-01-13T14:50:59;0.87;;;0.60;;
30062;SDS011;16889;67.864;24.990;2023-01-13T14:55:46;0.70;;;0.60;;
30062;SDS011;16889;67.864;24.990;2023-01-13T15:10:12;0.50;;;0.50;;
30062;SDS011;16889;67.864;24.990;2023-01-13T15:15:04;0.77;;;0.73;;
30062;SDS011;16889;67.864;24.990;2023-01-13T15:20:05;1.08;;;0.90;;
30062;SDS011;16889;67.864;24.990;2023-01-13T15:24:57;1.20;;;0.70;;
30062;SDS011;16889;67.864;24.990;2023-01-13T15:29:44;0.77;;;0.73;;
30062;SDS011;16889;67.864;24.990;2023-01-13T15:34:30;0.80;;;0.50;;
30062;SDS011;16889;67.864;24.990;2023-01-13T15:39:16;1.45;;;0.80;;
30062;SDS011;16889;67.864;24.990;2023-01-13T15:44:02;1.23;;;0.98;;
30062;SDS011;16889;67.864;24.990;2023-01-13T15:54:30;1.10;;;0.80;;
30062;SDS011;16889;67.864;24.990;2023-01-13T15:59:20;1.50;;;0.80;;
30062;SDS011;16889;67.864;24.990;2023-01-13T16:04:08;1.02;;;0.70;;
30062;SDS011;16889;67.864;24.990;2023-01-13T16:08:54;1.55;;;0.82;;
30062;SDS011;16889;67.864;24.990;2023-01-13T16:13:40;1.98;;;1.10;;
30062;SDS011;16889;67.864;24.990;2023-01-13T16:18:27;20.50;;;12.93;;
30062;SDS011;16889;67.864;24.990;2023-01-13T16:23:14;8.85;;;5.60;;
30062;SDS011;16889;67.864;24.990;2023-01-13T16:28:01;2.17;;;1.75;;
30062;SDS011;16889;67.864;24.990;2023-01-13T16:32:47;3.33;;;2.47;;
30062;SDS011;16889;67.864;24.990;2023-01-13T16:37:33;2.22;;;1.40;;
30062;SDS011;16889;67.864;24.990;2023-01-13T16:42:19;1.85;;;1.30;;
30062;SDS011;16889;67.864;24.990;2023-01-13T16:47:05;2.30;;;1.70;;
30062;SDS011;16889;67.864;24.990;2023-01-13T16:51:56;1.60;;;1.17;;
30062;SDS011;16889;67.864;24.990;2023-01-13T16:56:42;1.40;;;1.05;;
30062;SDS011;16889;67.864;24.990;2023-01-13T17:01:30;1.03;;;0.80;;
30062;SDS011;16889;67.864;24.990;2023-01-13T17:06:19;4.13;;;2.38;;
30062;SDS011;16889;67.864;24.990;2023-01-13T17:11:11;6.88;;;2.10;;
30062;SDS011;16889;67.864;24.990;2023-01-13T17:15:57;29.90;;;3.00;;
30062;SDS011;16889;67.864;24.990;2023-01-13T17:20:43;11.18;;;5.25;;
30062;SDS011;16889;67.864;24.990;2023-01-13T17:25:29;9.48;;;3.22;;
30062;SDS011;16889;67.864;24.990;2023-01-13T17:30:15;18.00;;;4.10;;
30062;SDS011;16889;67.864;24.990;2023-01-13T17:39:50;25.05;;;3.85;;
30062;SDS011;16889;67.864;24.990;2023-01-13T17:44:37;8.40;;;3.10;;
30062;SDS011;16889;67.864;24.990;2023-01-13T17:49:24;8.73;;;3.23;;
30062;SDS011;16889;67.864;24.990;2023-01-13T17:54:10;4.22;;;2.67;;
30062;SDS011;16889;67.864;24.990;2023-01-13T17:58:56;7.97;;;4.10;;
30062;SDS011;16889;67.864;24.990;2023-01-13T18:03:42;9.20;;;4.10;;
30062;SDS011;16889;67.864;24.990;2023-01-13T18:08:29;10.25;;;3.67;;
30062;SDS011;16889;67.864;24.990;2023-01-13T18:13:15;8.13;;;3.25;;
30062;SDS011;16889;67.864;24.990;2023-01-13T18:18:01;15.70;;;4.13;;
30062;SDS011;16889;67.864;24.990;2023-01-13T18:22:47;9.50;;;4.22;;
30062;SDS011;16889;67.864;24.990;2023-01-13T18:27:52;12.77;;;2.58;;
30062;SDS011;16889;67.864;24.990;2023-01-13T18:32:38;4.13;;;2.35;;
30062;SDS011;16889;67.864;24.990;2023-01-13T18:37:24;4.50;;;2.28;;
30062;SDS011;16889;67.864;24.990;2023-01-13T18:42:10;18.53;;;3.10;;
30062;SDS011;16889;67.864;24.990;2023-01-13T18:47:15;2.97;;;1.90;;
30062;SDS011;16889;67.864;24.990;2023-01-13T18:52:01;2.95;;;1.88;;
30062;SDS011;16889;67.864;24.990;2023-01-13T18:56:47;4.63;;;1.73;;
30062;SDS011;16889;67.864;24.990;2023-01-13T19:01:34;4.25;;;2.53;;
30062;SDS011;16889;67.864;24.990;2023-01-13T19:06:22;4.03;;;2.47;;
30062;SDS011;16889;67.864;24.990;2023-01-13T19:11:10;3.88;;;2.45;;
30062;SDS011;16889;67.864;24.990;2023-01-13T19:15:56;2.97;;;1.80;;
30062;SDS011;16889;67.864;24.990;2023-01-13T19:20:51;2.15;;;1.30;;
30062;SDS011;16889;67.864;24.990;2023-01-13T19:25:37;2.95;;;1.70;;
30062;SDS011;16889;67.864;24.990;2023-01-13T19:30:23;4.38;;;2.45;;
30062;SDS011;16889;67.864;24.990;2023-01-13T19:35:09;9.75;;;2.80;;
30062;SDS011;16889;67.864;24.990;2023-01-13T19:39:57;8.23;;;3.00;;
30062;SDS011;16889;67.864;24.990;2023-01-13T19:44:43;3.83;;;2.38;;
30062;SDS011;16889;67.864;24.990;2023-01-13T19:49:48;4.80;;;2.50;;
30062;SDS011;16889;67.864;24.990;2023-01-13T19:54:34;3.45;;;1.73;;
30062;SDS011;16889;67.864;24.990;2023-01-13T19:59:20;3.20;;;1.88;;
30062;SDS011;16889;67.864;24.990;2023-01-13T20:04:13;3.45;;;2.20;;
30062;SDS011;16889;67.864;24.990;2023-01-13T20:09:01;3.58;;;2.17;;
30062;SDS011;16889;67.864;24.990;2023-01-13T20:13:47;2.50;;;1.50;;
30062;SDS011;16889;67.864;24.990;2023-01-13T20:18:36;3.00;;;1.67;;
30062;SDS011;16889;67.864;24.990;2023-01-13T20:23:22;1.73;;;1.40;;
30062;SDS011;16889;67.864;24.990;2023-01-13T20:28:08;2.40;;;1.53;;
30062;SDS011;16889;67.864;24.990;2023-01-13T20:32:54;2.40;;;1.70;;
30062;SDS011;16889;67.864;24.990;2023-01-13T20:37:40;3.73;;;1.93;;
30062;SDS011;16889;67.864;24.990;2023-01-13T20:42:27;4.32;;;1.33;;
30062;SDS011;16889;67.864;24.990;2023-01-13T20:47:13;2.42;;;1.38;;
30062;SDS011;16889;67.864;24.990;2023-01-13T20:52:00;2.22;;;1.45;;
30062;SDS011;16889;67.864;24.990;2023-01-13T20:56:49;3.28;;;1.45;;
30062;SDS011;16889;67.864;24.990;2023-01-13T21:01:36;2.33;;;1.40;;
30062;SDS011;16889;67.864;24.990;2023-01-13T21:06:22;2.58;;;1.45;;
30062;SDS011;16889;67.864;24.990;2023-01-13T21:11:09;2.85;;;1.30;;
30062;SDS011;16889;67.864;24.990;2023-01-13T21:15:59;1.17;;;0.95;;
30062;SDS011;16889;67.864;24.990;2023-01-13T21:20:45;2.10;;;1.30;;
30062;SDS011;16889;67.864;24.990;2023-01-13T21:25:31;2.47;;;1.40;;
30062;SDS011;16889;67.864;24.990;2023-01-13T21:30:18;1.60;;;1.10;;
30062;SDS011;16889;67.864;24.990;2023-01-13T21:35:04;2.53;;;1.30;;
30062;SDS011;16889;67.864;24.990;2023-01-13T21:44:36;4.00;;;1.90;;
30062;SDS011;16889;67.864;24.990;2023-01-13T21:49:41;3.63;;;1.60;;
30062;SDS011;16889;67.864;24.990;2023-01-13T21:54:28;4.45;;;2.03;;
30062;SDS011;16889;67.864;24.990;2023-01-13T21:59:14;4.20;;;1.80;;
30062;SDS011;16889;67.864;24.990;2023-01-13T22:04:01;6.82;;;2.15;;
30062;SDS011;16889;67.864;24.990;2023-01-13T22:08:56;3.38;;;1.70;;
30062;SDS011;16889;67.864;24.990;2023-01-13T22:13:45;5.60;;;2.20;;
30062;SDS011;16889;67.864;24.990;2023-01-13T22:18:51;4.38;;;2.05;;
30062;SDS011;16889;67.864;24.990;2023-01-13T22:23:38;5.90;;;2.42;;
30062;SDS011;16889;67.864;24.990;2023-01-13T22:28:24;5.47;;;2.50;;
30062;SDS011;16889;67.864;24.990;2023-01-13T22:33:18;8.63;;;3.50;;
30062;SDS011;16889;67.864;24.990;2023-01-13T22:38:04;6.07;;;2.85;;
30062;SDS011;16889;67.864;24.990;2023-01-13T22:42:50;8.52;;;3.60;;
30062;SDS011;16889;67.864;24.990;2023-01-13T22:47:36;4.57;;;2.47;;
30062;SDS011;16889;67.864;24.990;2023-01-13T22:52:22;7.28;;;3.53;;
30062;SDS011;16889;67.864;24.990;2023-01-13T22:57:08;11.00;;;4.40;;
30062;SDS011;16889;67.864;24.990;2023-01-13T23:01:54;6.60;;;3.17;;
30062;SDS011;16889;67.864;24.990;2023-01-13T23:06:40;10.83;;;4.07;;
30062;SDS011;16889;67.864;24.990;2023-01-13T23:11:27;11.68;;;3.13;;
30062;SDS011;16889;67.864;24.990;2023-01-13T23:16:15;5.72;;;3.20;;
30062;SDS011;16889;67.864;24.990;2023-01-13T23:21:06;10.98;;;4.57;;
30062;SDS011;16889;67.864;24.990;2023-01-13T23:25:55;6.88;;;3.65;;
30062;SDS011;16889;67.864;24.990;2023-01-13T23:30:41;6.27;;;3.20;;
30062;SDS011;16889;67.864;24.990;2023-01-13T23:35:27;8.30;;;4.10;;
30062;SDS011;16889;67.864;24.990;2023-01-13T23:40:13;6.27;;;3.40;;
30062;SDS011;16889;67.864;24.990;2023-01-13T23:44:59;9.45;;;3.45;;
30062;SDS011;16889;67.864;24.990;2023-01-13T23:49:45;5.70;;;2.83;;
30062;SDS011;16889;67.864;24.990;2023-01-13T23:54:31;7.67;;;2.73;;
30062;SDS011;16889;67.864;24.990;2023-01-13T23:59:18;5.27;;;3.03;;
